Time;durP1;ratioP1;P1;durP2;ratioP2;P2;SDS_P1;SDS_P2;PMS_P1;PMS_P2;Temp;Humidity;BMP_temperature;BMP_pressure;BME280_temperature;BME280_humidity;BME280_pressure;Samples;Min_cycle;Max_cycle;Signal;HPM_P1;HPM_P2
2022/05/07 00:00:58;;;;;;;17.55;15.05;;;22.40;61.20;;;;;;5017937;28;20109;-79
2022/05/07 00:03:24;;;;;;;18.15;15.43;;;22.00;62.20;;;;;;5036361;28;20470;-79
2022/05/07 00:05:50;;;;;;;17.92;16.02;;;22.20;61.70;;;;;;5036228;28;20028;-78
2022/05/07 00:08:15;;;;;;;17.52;15.52;;;22.20;61.90;;;;;;5035859;28;20555;-78
2022/05/07 00:10:43;;;;;;;18.70;15.95;;;22.00;62.40;;;;;;5017717;28;20484;-80
2022/05/07 00:13:09;;;;;;;19.45;16.63;;;22.10;62.00;;;;;;5036461;28;20022;-77
2022/05/07 00:15:34;;;;;;;18.08;16.15;;;22.10;62.10;;;;;;5018560;28;20022;-77
2022/05/07 00:18:07;;;;;;;20.10;16.52;;;22.40;61.60;;;;;;5018468;28;20072;-78
2022/05/07 00:20:34;;;;;;;19.27;16.35;;;22.50;62.00;;;;;;5018194;28;20049;-77
2022/05/07 00:23:00;;;;;;;21.23;17.15;;;22.50;61.80;;;;;;5018284;28;20034;-78
2022/05/07 00:25:27;;;;;;;17.48;15.40;;;22.20;61.70;;;;;;5018217;28;20029;-78
2022/05/07 00:27:53;;;;;;;19.38;15.85;;;22.20;62.40;;;;;;5035739;28;20511;-77
2022/05/07 00:30:19;;;;;;;20.58;17.58;;;22.30;61.70;;;;;;5035904;28;20080;-81
2022/05/07 00:32:45;;;;;;;17.55;15.27;;;22.20;62.10;;;;;;5035993;28;20372;-79
2022/05/07 00:35:11;;;;;;;16.13;14.43;;;22.50;61.60;;;;;;5035637;28;20025;-78
2022/05/07 00:37:37;;;;;;;22.58;19.65;;;22.20;61.70;;;;;;5017910;28;20057;-78
2022/05/07 00:40:04;;;;;;;15.90;14.13;;;21.90;62.90;;;;;;5036046;28;20113;-80
2022/05/07 00:42:30;;;;;;;18.23;14.93;;;21.50;63.40;;;;;;5035741;28;20426;-78
2022/05/07 00:44:56;;;;;;;17.23;14.35;;;21.30;65.20;;;;;;5035847;28;20033;-79
2022/05/07 00:47:24;;;;;;;16.77;14.98;;;20.50;66.90;;;;;;5035221;28;20042;-79
2022/05/07 00:49:54;;;;;;;16.55;14.32;;;20.60;67.00;;;;;;5035236;28;20045;-79
2022/05/07 00:52:20;;;;;;;16.63;14.83;;;20.90;66.30;;;;;;5035849;28;20025;-79
2022/05/07 00:54:47;;;;;;;15.63;13.88;;;21.10;66.20;;;;;;5035749;28;20671;-79
2022/05/07 00:57:14;;;;;;;17.45;15.38;;;21.50;64.60;;;;;;5035451;28;20100;-79
2022/05/07 00:59:40;;;;;;;19.40;15.55;;;21.80;63.80;;;;;;5035844;28;20032;-78
2022/05/07 01:02:06;;;;;;;16.80;15.00;;;22.00;62.50;;;;;;5035813;28;20014;-83
2022/05/07 01:04:35;;;;;;;17.52;15.38;;;22.30;62.10;;;;;;5035423;28;20056;-78
2022/05/07 01:07:02;;;;;;;26.70;20.23;;;22.40;61.60;;;;;;5017529;28;20026;-78
2022/05/07 01:09:30;;;;;;;26.25;19.88;;;22.40;61.50;;;;;;5018534;28;20095;-79
2022/05/07 01:11:56;;;;;;;21.45;18.00;;;22.20;61.90;;;;;;5017807;28;20033;-77
2022/05/07 01:14:21;;;;;;;20.52;17.38;;;22.40;61.70;;;;;;5036308;28;20029;-78
2022/05/07 01:16:47;;;;;;;19.25;15.45;;;22.40;61.50;;;;;;5036030;28;20464;-77
2022/05/07 01:19:13;;;;;;;18.58;16.33;;;22.40;61.70;;;;;;5035055;28;20483;-86
2022/05/07 01:21:38;;;;;;;20.17;16.23;;;22.30;61.60;;;;;;5035794;28;20516;-79
2022/05/07 01:24:05;;;;;;;19.80;15.73;;;22.50;61.40;;;;;;5034982;28;20120;-78
2022/05/07 01:26:30;;;;;;;18.35;15.65;;;22.30;61.80;;;;;;5034804;28;20472;-83
2022/05/07 01:29:03;;;;;;;18.40;14.75;;;22.30;61.30;;;;;;5016783;28;20045;-79
2022/05/07 01:31:29;;;;;;;18.17;16.08;;;22.10;62.00;;;;;;5016652;28;20021;-79
2022/05/07 01:33:55;;;;;;;17.27;14.52;;;22.00;62.20;;;;;;5016763;28;20037;-78
2022/05/07 01:36:21;;;;;;;16.17;14.48;;;22.00;62.60;;;;;;5034516;28;20021;-78
2022/05/07 01:38:48;;;;;;;17.67;15.77;;;22.00;62.30;;;;;;5034576;28;20044;-79
2022/05/07 01:41:14;;;;;;;18.08;15.57;;;22.10;62.10;;;;;;5017118;28;20470;-78
2022/05/07 01:43:40;;;;;;;18.35;15.13;;;22.30;61.90;;;;;;5034806;28;20029;-79
2022/05/07 01:48:09;;;;;;;18.67;15.88;;;22.40;61.70;;;;;;5016946;28;20024;-78
2022/05/07 01:48:52;;;;;;;17.92;15.10;;;22.30;61.80;;;;;;5033565;28;20099;-81
2022/05/07 01:51:18;;;;;;;18.77;16.58;;;22.40;61.40;;;;;;5016532;28;20488;-81
2022/05/07 01:53:43;;;;;;;17.15;15.23;;;22.40;61.70;;;;;;5017493;28;20030;-78
2022/05/07 01:56:09;;;;;;;18.23;15.80;;;22.50;61.50;;;;;;5034615;28;20530;-79
2022/05/07 01:58:34;;;;;;;17.02;14.43;;;22.60;61.00;;;;;;5034935;28;20025;-79
2022/05/07 02:01:00;;;;;;;16.40;14.45;;;22.60;60.80;;;;;;5016330;28;20064;-80
2022/05/07 02:03:26;;;;;;;15.60;13.40;;;22.60;60.80;;;;;;5034387;28;20025;-83
2022/05/07 02:05:51;;;;;;;16.48;14.07;;;22.40;61.50;;;;;;5033810;28;20029;-79
2022/05/07 02:08:17;;;;;;;16.58;14.38;;;22.20;61.60;;;;;;5033816;28;20030;-78
2022/05/07 02:10:43;;;;;;;17.55;13.38;;;22.30;61.50;;;;;;5034203;28;20531;-78
2022/05/07 02:13:09;;;;;;;16.05;14.35;;;22.10;61.60;;;;;;5016935;28;20033;-78
2022/05/07 02:15:35;;;;;;;16.25;14.15;;;22.10;61.60;;;;;;5034476;28;20053;-80
2022/05/07 02:18:00;;;;;;;16.60;14.55;;;22.10;61.70;;;;;;5034305;28;20021;-77
2022/05/07 02:20:26;;;;;;;16.73;14.93;;;22.30;61.50;;;;;;5034579;28;20087;-79
2022/05/07 02:22:55;;;;;;;16.98;14.82;;;22.30;61.30;;;;;;5033188;28;20096;-80
2022/05/07 02:25:22;;;;;;;16.67;14.93;;;22.40;61.30;;;;;;5033980;28;20026;-79
2022/05/07 02:27:48;;;;;;;14.25;12.75;;;22.40;61.00;;;;;;5033961;28;20049;-78
2022/05/07 02:30:14;;;;;;;16.02;14.43;;;22.40;60.90;;;;;;5033874;28;20065;-85
2022/05/07 02:32:39;;;;;;;17.08;14.93;;;22.40;61.00;;;;;;5015707;28;20167;-78
2022/05/07 02:35:05;;;;;;;17.15;15.35;;;22.60;60.80;;;;;;5015521;28;20033;-83
2022/05/07 02:37:31;;;;;;;18.30;14.63;;;22.70;60.60;;;;;;5033772;28;20032;-78
2022/05/07 02:39:57;;;;;;;17.50;15.13;;;22.60;60.60;;;;;;5016063;28;20498;-79
2022/05/07 02:42:39;;;;;;;17.30;14.68;;;22.50;60.60;;;;;;5015732;28;20036;-78
2022/05/07 02:45:06;;;;;;;17.17;15.35;;;22.50;60.60;;;;;;5033742;28;20025;-78
2022/05/07 02:47:40;;;;;;;15.77;14.13;;;22.50;60.70;;;;;;5014664;28;20045;-78
2022/05/07 02:50:08;;;;;;;16.05;14.35;;;22.40;60.90;;;;;;5033322;28;20033;-78
2022/05/07 02:52:35;;;;;;;18.85;15.70;;;22.50;60.60;;;;;;5034322;28;20053;-78
2022/05/07 02:55:01;;;;;;;20.50;16.77;;;22.50;60.70;;;;;;5016179;28;20427;-79
2022/05/07 02:57:27;;;;;;;15.38;13.77;;;22.60;60.60;;;;;;5033601;28;20104;-78
2022/05/07 02:59:53;;;;;;;16.42;13.82;;;22.20;61.70;;;;;;5016505;28;20041;-92
2022/05/07 03:02:19;;;;;;;15.52;13.93;;;22.20;61.80;;;;;;5033843;28;20021;-78
2022/05/07 03:04:47;;;;;;;15.93;13.90;;;22.30;61.80;;;;;;5033722;28;20029;-94
2022/05/07 03:07:13;;;;;;;18.02;15.07;;;22.30;61.70;;;;;;5015641;28;20033;-79
2022/05/07 03:09:38;;;;;;;18.90;16.60;;;22.20;62.10;;;;;;5032416;28;20042;-80
2022/05/07 03:12:04;;;;;;;20.08;17.48;;;22.20;61.40;;;;;;5033132;28;20028;-78
2022/05/07 03:14:31;;;;;;;18.00;14.77;;;22.30;61.30;;;;;;5033381;28;20032;-78
2022/05/07 03:16:56;;;;;;;18.27;15.60;;;22.50;60.80;;;;;;5015658;28;20027;-78
2022/05/07 03:19:22;;;;;;;16.20;14.38;;;22.60;60.90;;;;;;5032933;28;20025;-77
2022/05/07 03:21:48;;;;;;;23.65;18.73;;;22.60;60.50;;;;;;5032983;28;20151;-78
2022/05/07 03:24:13;;;;;;;22.48;17.70;;;22.30;61.30;;;;;;5032920;28;20396;-80
2022/05/07 03:26:39;;;;;;;21.10;16.13;;;22.30;61.20;;;;;;5032872;28;20079;-79
2022/05/07 03:29:05;;;;;;;20.27;15.82;;;22.30;61.20;;;;;;5014570;28;20033;-78
2022/05/07 03:31:31;;;;;;;16.75;14.77;;;22.30;61.20;;;;;;5014907;28;20025;-78
2022/05/07 03:33:57;;;;;;;19.23;14.02;;;22.10;61.40;;;;;;5032362;28;20030;-78
2022/05/07 03:36:23;;;;;;;15.48;13.27;;;21.20;64.10;;;;;;5032860;28;20026;-77
2022/05/07 03:38:49;;;;;;;17.23;14.93;;;20.70;65.60;;;;;;5014496;28;20025;-79
2022/05/07 03:41:19;;;;;;;17.33;15.23;;;21.00;64.60;;;;;;5014769;28;20415;-78
2022/05/07 03:43:45;;;;;;;17.25;14.68;;;21.50;63.60;;;;;;5032020;28;20022;-78
2022/05/07 03:46:10;;;;;;;19.48;14.85;;;21.90;62.40;;;;;;5032644;28;20064;-78
2022/05/07 03:48:36;;;;;;;17.20;15.05;;;22.10;61.30;;;;;;5031851;28;20053;-78
2022/05/07 03:51:03;;;;;;;16.50;14.05;;;22.20;60.90;;;;;;5032364;28;20021;-78
2022/05/07 03:53:31;;;;;;;25.58;19.27;;;22.30;60.50;;;;;;5032764;28;20403;-80
2022/05/07 03:56:05;;;;;;;20.45;17.10;;;22.30;60.80;;;;;;5032431;28;20029;-81
2022/05/07 03:58:32;;;;;;;29.60;23.15;;;22.40;60.60;;;;;;5029378;28;20053;-78
2022/05/07 04:00:59;;;;;;;23.67;18.33;;;22.30;60.80;;;;;;5032330;28;20068;-78
2022/05/07 04:03:25;;;;;;;20.65;17.40;;;22.50;60.40;;;;;;5032369;28;20104;-78
2022/05/07 04:05:51;;;;;;;26.23;21.20;;;22.40;60.40;;;;;;5032699;28;20483;-81
2022/05/07 04:08:18;;;;;;;22.55;18.35;;;22.40;60.40;;;;;;5032823;28;20435;-79
2022/05/07 04:10:44;;;;;;;18.40;15.95;;;22.50;60.50;;;;;;5014946;28;20030;-78
2022/05/07 04:13:15;;;;;;;17.92;15.38;;;22.40;61.20;;;;;;5032864;28;20041;-80
2022/05/07 04:15:41;;;;;;;16.90;15.05;;;22.40;60.50;;;;;;5014962;28;20033;-78
2022/05/07 04:18:10;;;;;;;18.17;15.80;;;22.50;60.50;;;;;;5015068;28;20087;-78
2022/05/07 04:20:36;;;;;;;17.35;13.90;;;22.60;60.50;;;;;;5033198;28;20033;-79
2022/05/07 04:23:03;;;;;;;19.70;16.95;;;22.60;60.30;;;;;;5015281;28;20084;-79
2022/05/07 04:25:29;;;;;;;28.92;22.92;;;22.50;60.50;;;;;;5014854;28;20079;-81
2022/05/07 04:27:55;;;;;;;32.58;24.98;;;22.50;60.60;;;;;;5015184;28;20120;-77
2022/05/07 04:30:21;;;;;;;23.25;19.20;;;22.50;60.70;;;;;;5014645;28;20045;-80
2022/05/07 04:32:47;;;;;;;20.75;17.83;;;22.50;61.30;;;;;;5032425;28;20061;-79
2022/05/07 04:35:13;;;;;;;20.90;16.27;;;22.40;61.60;;;;;;5032671;28;20060;-78
2022/05/07 04:37:39;;;;;;;21.00;15.73;;;22.40;61.40;;;;;;5031463;28;20037;-78
2022/05/07 04:40:05;;;;;;;17.25;15.23;;;22.60;61.00;;;;;;5031478;28;20483;-78
2022/05/07 04:42:31;;;;;;;19.38;16.20;;;22.60;61.00;;;;;;5013946;28;20030;-78
2022/05/07 04:44:57;;;;;;;17.95;16.05;;;22.70;60.90;;;;;;5013857;28;20029;-78
2022/05/07 04:47:22;;;;;;;18.80;16.25;;;22.70;60.70;;;;;;5035300;28;20481;-87
2022/05/07 04:49:48;;;;;;;17.70;15.80;;;22.80;60.70;;;;;;5035423;28;20033;-78
2022/05/07 04:52:14;;;;;;;21.35;15.60;;;22.90;60.90;;;;;;5035429;28;20025;-78
2022/05/07 04:54:41;;;;;;;20.58;15.88;;;23.00;60.90;;;;;;5035482;28;20124;-78
2022/05/07 04:57:07;;;;;;;19.83;17.55;;;23.00;61.30;;;;;;5017621;28;20494;-78
2022/05/07 04:59:32;;;;;;;17.90;16.00;;;23.10;60.70;;;;;;5017264;28;20029;-77
2022/05/07 05:01:58;;;;;;;18.45;14.70;;;23.30;60.60;;;;;;5035293;28;20061;-80
2022/05/07 05:04:24;;;;;;;21.80;16.85;;;23.40;60.30;;;;;;5035031;28;20018;-80
2022/05/07 05:06:49;;;;;;;19.08;16.48;;;23.30;60.90;;;;;;5035256;28;20026;-87
2022/05/07 05:09:15;;;;;;;20.80;16.48;;;23.30;61.30;;;;;;5035688;28;20439;-87
2022/05/07 05:11:41;;;;;;;17.30;15.40;;;23.20;60.90;;;;;;5036213;28;20018;-92
2022/05/07 05:16:51;;;;;;;15.25;12.82;;;23.40;60.50;;;;;;5036214;28;20067;-78
2022/05/07 05:19:18;;;;;;;14.85;12.18;;;23.30;60.70;;;;;;5036758;28;20475;-79
2022/05/07 05:21:43;;;;;;;13.52;12.13;;;22.60;61.60;;;;;;5037016;28;20026;-78
2022/05/07 05:24:09;;;;;;;13.30;12.00;;;22.10;63.30;;;;;;5035607;28;20499;-80
2022/05/07 05:26:35;;;;;;;15.18;11.55;;;22.20;64.10;;;;;;5035376;28;20026;-80
2022/05/07 05:29:01;;;;;;;12.93;11.60;;;22.50;62.00;;;;;;4669778;28;10000138;-78
2022/05/07 05:31:28;;;;;;;13.38;11.18;;;22.60;62.50;;;;;;5032893;28;20045;-79
2022/05/07 05:33:54;;;;;;;12.70;11.10;;;22.60;61.50;;;;;;5033697;28;20495;-78
2022/05/07 05:36:20;;;;;;;13.02;11.15;;;22.50;62.80;;;;;;5013687;28;20025;-77
2022/05/07 05:38:46;;;;;;;14.60;13.07;;;22.70;62.20;;;;;;5013259;28;20025;-79
2022/05/07 05:41:12;;;;;;;12.82;11.25;;;22.80;62.40;;;;;;5036914;28;20056;-81
2022/05/07 05:43:40;;;;;;;12.82;11.35;;;23.00;61.50;;;;;;5045516;28;20098;-83
2022/05/07 05:46:05;;;;;;;12.93;10.90;;;23.00;61.20;;;;;;5049920;28;20017;-80
2022/05/07 05:48:31;;;;;;;13.98;11.38;;;22.80;61.00;;;;;;5048072;28;20102;-77
2022/05/07 05:50:57;;;;;;;14.30;12.82;;;22.70;61.10;;;;;;5051112;28;20072;-78
2022/05/07 05:53:22;;;;;;;13.63;12.27;;;23.10;61.20;;;;;;5050895;28;20032;-78
2022/05/07 05:55:49;;;;;;;13.05;11.75;;;23.60;60.80;;;;;;5029791;28;20086;-82
2022/05/07 05:58:14;;;;;;;13.52;10.73;;;23.90;60.20;;;;;;5049367;28;20450;-79
2022/05/07 06:00:40;;;;;;;10.75;9.68;;;23.80;58.30;;;;;;5049126;28;20593;-85
2022/05/07 06:03:06;;;;;;;13.10;11.32;;;23.50;58.10;;;;;;5031394;28;20082;-76
2022/05/07 06:05:32;;;;;;;11.15;9.90;;;23.40;59.00;;;;;;5031470;28;20020;-77
2022/05/07 06:07:57;;;;;;;11.50;9.98;;;23.80;59.00;;;;;;5019166;28;20025;-76
2022/05/07 06:10:23;;;;;;;14.30;12.27;;;24.00;59.20;;;;;;5051438;28;20066;-86
2022/05/07 06:12:49;;;;;;;15.55;11.60;;;24.20;58.60;;;;;;5049515;28;20074;-87
2022/05/07 06:15:15;;;;;;;12.38;11.00;;;24.50;57.70;;;;;;5033142;28;20052;-83
2022/05/07 06:17:40;;;;;;;11.40;9.80;;;24.80;57.10;;;;;;5032896;28;20033;-89
2022/05/07 06:20:07;;;;;;;12.13;10.85;;;24.30;56.90;;;;;;5032398;28;20033;-78
2022/05/07 06:22:33;;;;;;;17.10;11.07;;;24.10;59.30;;;;;;5031852;28;20021;-82
2022/05/07 06:27:42;;;;;;;12.70;10.13;;;24.60;57.90;;;;;;5047258;28;20089;-75
2022/05/07 06:30:09;;;;;;;12.27;10.00;;;24.10;57.90;;;;;;5038856;28;20041;-76
2022/05/07 06:32:36;;;;;;;11.43;9.85;;;23.90;58.30;;;;;;5043163;28;20025;-76
2022/05/07 06:35:06;;;;;;;9.98;8.98;;;23.40;58.90;;;;;;5040920;28;20017;-76
2022/05/07 06:37:34;;;;;;;12.35;10.30;;;22.20;60.60;;;;;;5043828;28;20036;-90
2022/05/07 06:40:00;;;;;;;10.50;9.40;;;21.60;63.90;;;;;;5018807;28;20123;-77
2022/05/07 06:42:26;;;;;;;12.20;9.68;;;21.50;63.60;;;;;;5032213;28;20383;-77
2022/05/07 06:44:52;;;;;;;11.00;9.40;;;21.70;63.90;;;;;;5049697;28;20040;-85
2022/05/07 06:47:18;;;;;;;11.30;10.18;;;21.90;63.40;;;;;;5033601;28;20037;-78
2022/05/07 06:49:44;;;;;;;11.10;9.90;;;22.10;62.90;;;;;;5034222;28;20028;-76
2022/05/07 06:52:10;;;;;;;10.63;9.63;;;21.50;63.70;;;;;;5031967;28;20029;-77
2022/05/07 06:54:36;;;;;;;13.75;9.85;;;21.10;64.90;;;;;;5035261;28;20060;-79
2022/05/07 06:57:03;;;;;;;10.25;9.15;;;21.50;63.80;;;;;;5052053;28;20071;-78
2022/05/07 06:59:31;;;;;;;10.77;9.32;;;21.70;63.80;;;;;;5053463;28;20074;-78
2022/05/07 07:01:57;;;;;;;11.27;9.73;;;22.10;62.30;;;;;;5053129;28;20036;-78
2022/05/07 07:04:24;;;;;;;10.43;8.95;;;22.60;62.00;;;;;;5051901;28;20029;-78
2022/05/07 07:06:50;;;;;;;10.85;9.02;;;23.30;60.70;;;;;;5032260;28;20335;-78
2022/05/07 07:09:17;;;;;;;11.68;10.48;;;23.80;59.90;;;;;;5033290;28;20028;-79
2022/05/07 07:11:42;;;;;;;14.00;10.07;;;24.20;59.60;;;;;;5052668;28;20048;-76
2022/05/07 07:14:08;;;;;;;11.15;9.88;;;24.70;58.50;;;;;;5052999;28;20025;-77
2022/05/07 07:16:34;;;;;;;11.20;9.27;;;24.90;57.30;;;;;;5034844;28;20475;-78
2022/05/07 07:19:00;;;;;;;11.25;9.95;;;25.10;56.40;;;;;;5034937;28;20511;-81
2022/05/07 07:21:25;;;;;;;12.93;10.15;;;25.30;56.40;;;;;;5052902;28;20021;-78
2022/05/07 07:23:51;;;;;;;13.00;10.25;;;25.60;56.50;;;;;;5053163;28;20029;-81
2022/05/07 07:26:17;;;;;;;11.45;10.25;;;25.80;55.80;;;;;;5053243;28;20021;-78
2022/05/07 07:28:43;;;;;;;13.52;10.18;;;25.90;55.30;;;;;;5052720;28;20491;-78
2022/05/07 07:31:10;;;;;;;11.80;9.77;;;26.10;55.60;;;;;;5052753;28;20025;-89
2022/05/07 07:33:38;;;;;;;10.60;8.73;;;26.20;55.40;;;;;;5034972;28;20067;-85
2022/05/07 07:36:05;;;;;;;12.32;8.75;;;26.20;54.80;;;;;;5034767;28;20551;-75
2022/05/07 07:38:31;;;;;;;10.38;9.15;;;26.10;54.70;;;;;;5052907;28;20048;-79
2022/05/07 07:40:56;;;;;;;10.13;9.07;;;25.90;55.00;;;;;;5052879;28;20029;-78
2022/05/07 07:43:23;;;;;;;10.07;8.68;;;26.00;53.60;;;;;;5034644;28;20025;-79
2022/05/07 07:48:34;;;;;;;10.57;7.97;;;26.30;53.30;;;;;;5052825;28;20103;-81
2022/05/07 07:51:00;;;;;;;14.02;7.70;;;25.90;54.10;;;;;;5035187;28;20029;-86
2022/05/07 07:53:26;;;;;;;8.05;7.18;;;26.10;53.00;;;;;;5034915;28;20017;-79
2022/05/07 07:55:52;;;;;;;9.15;7.65;;;26.20;52.50;;;;;;5034614;28;20043;-79
2022/05/07 07:58:18;;;;;;;8.82;7.90;;;26.50;52.70;;;;;;5052603;28;20029;-79
2022/05/07 08:00:44;;;;;;;9.93;7.43;;;26.00;52.80;;;;;;5035064;28;20032;-80
2022/05/07 08:03:20;;;;;;;9.73;7.32;;;25.80;52.40;;;;;;5034839;28;20021;-80
2022/05/07 08:05:51;;;;;;;14.23;7.85;;;25.40;52.20;;;;;;5052595;28;20398;-78
2022/05/07 08:13:49;;;;;;;9.38;7.60;;;23.30;56.80;;;;;;5053057;28;20490;-79
2022/05/07 08:16:17;;;;;;;10.98;8.18;;;23.80;56.70;;;;;;5052533;28;20025;-79
2022/05/07 08:18:43;;;;;;;13.30;10.32;;;23.30;56.40;;;;;;5052626;28;20024;-80
2022/05/07 08:21:10;;;;;;;10.13;8.48;;;22.70;58.40;;;;;;5054406;28;20483;-80
2022/05/07 08:23:37;;;;;;;11.70;9.13;;;23.50;57.20;;;;;;5038031;28;20479;-80
2022/05/07 08:26:06;;;;;;;20.10;9.32;;;24.00;56.60;;;;;;5056243;28;20107;-81
2022/05/07 08:28:35;;;;;;;9.13;7.63;;;24.00;56.60;;;;;;5056015;28;20111;-82
2022/05/07 08:31:01;;;;;;;9.70;8.23;;;23.90;56.50;;;;;;5056196;28;20083;-79
2022/05/07 08:33:29;;;;;;;33.42;10.48;;;23.30;57.60;;;;;;5038398;28;20029;-81
2022/05/07 08:35:55;;;;;;;13.27;9.05;;;23.20;57.60;;;;;;5038247;28;20072;-80
2022/05/07 08:38:20;;;;;;;17.65;9.18;;;22.30;58.50;;;;;;5055900;28;20498;-78
2022/05/07 08:40:46;;;;;;;11.65;8.50;;;22.10;59.20;;;;;;5038051;28;20033;-79
2022/05/07 08:43:14;;;;;;;9.48;8.43;;;22.40;60.40;;;;;;5055558;28;20498;-80
2022/05/07 08:45:41;;;;;;;10.24;6.84;;;22.60;59.50;;;;;;4357993;28;10021481;-79
2022/05/07 08:48:08;;;;;;;13.10;8.70;;;22.70;59.50;;;;;;5053956;28;20049;-82
2022/05/07 08:50:34;;;;;;;13.55;9.32;;;22.80;59.20;;;;;;5056246;28;20029;-79
2022/05/07 08:53:00;;;;;;;14.27;9.05;;;22.30;59.10;;;;;;5037851;28;20036;-86
2022/05/07 08:55:25;;;;;;;10.25;8.68;;;22.30;60.10;;;;;;5037957;28;20036;-85
2022/05/07 08:57:53;;;;;;;10.77;8.45;;;22.30;60.80;;;;;;5037670;28;20413;-77
2022/05/07 09:00:20;;;;;;;9.80;8.45;;;22.40;59.40;;;;;;5037654;28;20386;-83
2022/05/07 09:02:58;;;;;;;11.60;8.85;;;22.70;59.30;;;;;;5037356;28;20631;-82
2022/05/07 09:05:37;;;;;;;9.93;8.90;;;22.90;59.40;;;;;;5037273;28;20099;-81
2022/05/07 09:08:05;;;;;;;10.37;8.43;;;24.00;58.20;;;;;;5055402;28;20032;-82
2022/05/07 09:10:33;;;;;;;11.35;8.18;;;23.80;57.80;;;;;;5055453;28;20035;-78
2022/05/07 09:13:09;;;;;;;10.95;8.60;;;23.90;57.90;;;;;;5054941;28;20058;-77
2022/05/07 09:15:49;;;;;;;14.60;8.80;;;24.00;57.40;;;;;;5055388;28;20025;-83
2022/05/07 09:18:16;;;;;;;11.18;7.60;;;23.80;56.80;;;;;;5037460;28;20020;-85
2022/05/07 09:20:41;;;;;;;12.07;8.32;;;23.70;59.10;;;;;;5054954;28;20387;-89
2022/05/07 09:23:10;;;;;;;13.52;8.10;;;23.90;57.90;;;;;;5054985;28;20478;-78
2022/05/07 09:25:48;;;;;;;9.60;7.75;;;24.50;55.60;;;;;;5054912;28;20029;-76
2022/05/07 09:28:28;;;;;;;11.20;8.75;;;24.50;56.20;;;;;;5037007;28;20021;-80
2022/05/07 09:30:57;;;;;;;10.50;7.75;;;24.70;56.80;;;;;;5054924;28;20029;-79
2022/05/07 09:33:33;;;;;;;10.25;8.27;;;25.20;55.50;;;;;;5037183;28;20059;-80
2022/05/07 09:36:10;;;;;;;9.10;7.30;;;24.90;55.30;;;;;;5054468;28;20094;-78
2022/05/07 09:38:37;;;;;;;9.52;8.07;;;25.10;56.90;;;;;;5054852;28;20067;-77
2022/05/07 09:41:04;;;;;;;10.38;7.93;;;25.10;56.10;;;;;;5038172;28;20032;-85
2022/05/07 09:43:31;;;;;;;8.20;7.40;;;24.20;56.20;;;;;;5053165;28;20017;-80
2022/05/07 09:45:57;;;;;;;11.35;7.78;;;24.20;57.80;;;;;;5030694;28;20029;-77
2022/05/07 09:48:23;;;;;;;8.45;7.20;;;24.50;56.50;;;;;;5054442;28;20033;-83
2022/05/07 09:50:50;;;;;;;9.20;7.30;;;25.20;57.10;;;;;;5033132;28;20036;-80
2022/05/07 09:58:49;;;;;;;10.50;7.40;;;25.50;54.70;;;;;;5041902;28;20068;-83
2022/05/07 10:01:21;;;;;;;8.55;6.53;;;24.80;56.30;;;;;;4677496;28;10000249;-80
2022/05/07 10:03:59;;;;;;;9.15;7.07;;;24.70;55.80;;;;;;5034251;28;20502;-78
2022/05/07 10:06:52;;;;;;;8.63;7.40;;;24.80;55.00;;;;;;5034192;28;20021;-86
2022/05/07 10:09:36;;;;;;;7.97;7.18;;;24.70;55.60;;;;;;5033811;28;20071;-77
2022/05/07 10:12:03;;;;;;;7.85;6.72;;;24.60;55.50;;;;;;5031370;28;20032;-79
2022/05/07 10:14:31;;;;;;;9.35;6.68;;;24.50;56.60;;;;;;5051686;28;20029;-78
2022/05/07 10:17:00;;;;;;;10.00;6.65;;;24.10;55.50;;;;;;5051423;28;20564;-84
2022/05/07 10:19:40;;;;;;;7.72;6.85;;;24.20;56.20;;;;;;5033860;28;20058;-79
2022/05/07 10:22:26;;;;;;;9.70;6.85;;;24.70;56.20;;;;;;5024842;28;20116;-78
2022/05/07 10:25:07;;;;;;;8.77;7.00;;;24.60;55.70;;;;;;5034786;28;20041;-81
2022/05/07 10:27:37;;;;;;;8.63;6.57;;;24.60;55.50;;;;;;5041581;28;20051;-77
2022/05/07 10:30:09;;;;;;;8.48;6.78;;;24.40;56.30;;;;;;5023460;28;20029;-79
2022/05/07 10:32:56;;;;;;;11.88;7.03;;;24.50;55.60;;;;;;5037703;28;20036;-78
2022/05/07 10:35:42;;;;;;;8.07;6.40;;;24.90;55.70;;;;;;5043484;28;20028;-78
2022/05/07 10:38:09;;;;;;;8.70;6.45;;;25.10;55.60;;;;;;5048508;28;20047;-83
2022/05/07 10:40:35;;;;;;;7.40;6.47;;;25.10;54.50;;;;;;5028989;28;20083;-80
2022/05/07 10:43:00;;;;;;;8.15;6.50;;;25.20;54.80;;;;;;5029663;28;20028;-80
2022/05/07 10:45:29;;;;;;;11.13;6.35;;;24.60;54.60;;;;;;5050982;28;20036;-84
2022/05/07 10:47:58;;;;;;;8.32;6.40;;;24.60;56.20;;;;;;5032627;28;20163;-82
2022/05/07 10:50:23;;;;;;;10.30;6.60;;;24.60;54.80;;;;;;5026692;28;20069;-79
2022/05/07 10:52:57;;;;;;;13.15;7.00;;;24.70;55.00;;;;;;5015959;28;20032;-76
2022/05/07 10:55:26;;;;;;;7.35;6.50;;;24.40;55.30;;;;;;5021789;28;20104;-79
2022/05/07 10:57:55;;;;;;;7.70;6.90;;;24.50;55.80;;;;;;5032352;28;20049;-76
2022/05/07 11:00:22;;;;;;;7.43;6.63;;;24.50;55.80;;;;;;5027526;28;20113;-77
2022/05/07 11:02:50;;;;;;;8.63;7.18;;;24.60;56.00;;;;;;5013762;28;20033;-87
2022/05/07 11:05:16;;;;;;;8.50;7.03;;;24.60;55.30;;;;;;5028620;28;20021;-81
2022/05/07 11:07:43;;;;;;;10.50;7.60;;;24.10;56.70;;;;;;5030894;28;20537;-82
2022/05/07 11:10:15;;;;;;;7.40;6.25;;;24.00;56.90;;;;;;5029485;28;20041;-86
2022/05/07 11:12:40;;;;;;;9.75;6.95;;;24.10;56.10;;;;;;4671622;28;10000587;-79
2022/05/07 11:15:07;;;;;;;8.40;6.57;;;24.20;55.90;;;;;;5020833;28;20547;-76
2022/05/07 11:17:36;;;;;;;13.48;7.07;;;24.70;55.40;;;;;;5017839;28;20030;-81
2022/05/07 11:20:05;;;;;;;10.50;7.18;;;24.50;55.40;;;;;;5016758;28;20014;-81
2022/05/07 11:22:32;;;;;;;12.07;6.60;;;24.20;55.80;;;;;;5029344;28;20033;-80
2022/05/07 11:25:03;;;;;;;10.57;6.88;;;23.90;56.30;;;;;;5028206;28;20025;-74
2022/05/07 11:27:32;;;;;;;8.68;6.35;;;24.10;56.20;;;;;;5026682;28;20037;-83
2022/05/07 11:30:04;;;;;;;9.45;5.90;;;24.30;54.40;;;;;;5021772;28;20075;-77
2022/05/07 11:32:38;;;;;;;8.15;5.85;;;24.60;54.90;;;;;;5029622;28;20029;-80
2022/05/07 11:35:04;;;;;;;7.43;6.22;;;25.00;54.00;;;;;;5029357;28;20040;-77
2022/05/07 11:37:44;;;;;;;8.73;6.20;;;25.10;54.50;;;;;;5030044;28;20033;-77
2022/05/07 11:40:14;;;;;;;8.77;7.18;;;25.20;54.50;;;;;;5029279;28;20035;-76
2022/05/07 11:42:43;;;;;;;12.95;7.60;;;24.60;55.10;;;;;;5029889;28;20146;-79
2022/05/07 11:45:26;;;;;;;8.82;7.00;;;24.30;55.90;;;;;;5026119;28;20488;-75
2022/05/07 11:48:05;;;;;;;8.98;6.93;;;24.70;55.70;;;;;;5016847;28;20408;-77
2022/05/07 11:50:40;;;;;;;9.32;6.43;;;25.10;54.80;;;;;;5030721;28;20072;-78
2022/05/07 11:53:14;;;;;;;11.23;7.00;;;24.60;55.40;;;;;;5029179;28;20036;-80
2022/05/07 11:55:41;;;;;;;9.40;6.43;;;24.20;56.40;;;;;;5031454;28;20030;-78
2022/05/07 11:58:14;;;;;;;9.43;7.25;;;24.60;56.40;;;;;;5032261;28;20052;-82
2022/05/07 12:00:44;;;;;;;8.73;7.50;;;24.50;56.60;;;;;;5036682;28;20026;-77
2022/05/07 12:03:10;;;;;;;10.27;7.63;;;24.10;59.10;;;;;;5022253;28;20022;-76
2022/05/07 12:05:43;;;;;;;9.00;7.47;;;23.70;61.70;;;;;;5047334;28;20127;-75
2022/05/07 12:08:33;;;;;;;8.68;7.80;;;23.50;62.20;;;;;;5023700;28;20060;-77
2022/05/07 12:10:59;;;;;;;9.40;7.13;;;24.10;62.30;;;;;;5007895;28;20049;-74
2022/05/07 12:13:25;;;;;;;10.63;7.47;;;24.70;58.00;;;;;;5028177;28;20025;-77
2022/05/07 12:18:41;;;;;;;9.75;8.10;;;23.70;61.60;;;;;;5017445;28;20044;-76
2022/05/07 12:21:07;;;;;;;132.85;17.85;;;23.50;62.20;;;;;;5015508;28;20057;-75
2022/05/07 12:31:46;;;;;;;10.48;7.40;;;23.90;60.20;;;;;;5031765;28;20110;-78
2022/05/07 12:34:12;;;;;;;9.07;7.13;;;23.50;62.60;;;;;;5030002;28;20033;-77
2022/05/07 12:36:40;;;;;;;9.48;6.80;;;24.00;61.50;;;;;;5022085;28;20029;-79
2022/05/07 12:39:05;;;;;;;9.77;5.95;;;24.40;58.80;;;;;;5020140;28;20042;-77
2022/05/07 12:41:31;;;;;;;9.45;6.78;;;24.90;58.20;;;;;;5025251;28;20036;-77
2022/05/07 12:44:00;;;;;;;8.77;6.40;;;24.70;58.40;;;;;;5030882;28;20380;-77
2022/05/07 12:46:27;;;;;;;9.10;6.57;;;24.80;57.50;;;;;;5031834;28;20668;-82
2022/05/07 12:48:55;;;;;;;7.38;6.32;;;25.00;58.10;;;;;;5031761;28;20029;-77
2022/05/07 12:51:21;;;;;;;8.35;6.10;;;25.00;56.90;;;;;;5041839;28;20026;-72
2022/05/07 12:53:49;;;;;;;7.72;6.53;;;25.50;56.10;;;;;;5026275;28;20064;-77
2022/05/07 12:56:14;;;;;;;7.13;6.43;;;26.00;56.60;;;;;;5021046;28;20048;-75
2022/05/07 12:58:40;;;;;;;11.55;7.70;;;26.00;55.10;;;;;;5028610;28;20379;-83
2022/05/07 13:01:06;;;;;;;9.98;6.55;;;25.90;56.20;;;;;;5029118;28;20021;-74
2022/05/07 13:03:31;;;;;;;10.38;6.97;;;25.70;55.90;;;;;;5022263;28;20026;-82
2022/05/07 13:05:57;;;;;;;12.30;6.95;;;25.80;56.20;;;;;;5018384;28;20091;-76